Terminal Aerodrome Forecast
Issued by NWS Burlington, VT

Home | Current Version | Previous Version | Text Only | Print | Product List | Glossary On
Versions: 1 2 3 4 5 6 7 8 9 10 11 12 13 14
000
FTUS41 KBTV 020533
TAFBTV
TAF
KBTV 020533Z 0206/0306 VRB03KT P6SM FEW120 SCT250
     FM021200 19008KT P6SM SKC
     FM021800 20009KT P6SM SCT060=

USA.gov is the U.S. government's official web portal to all federal, state and local government web resources and services.